sensor_id;sensor_type;location;lat;lon;timestamp;P1;durP1;ratioP1;P2;durP2;ratioP2
5608;SDS011;2826;51.354;9.588;2022-10-15T00:01:19;15.20;;;12.00;;
5608;SDS011;2826;51.354;9.588;2022-10-15T00:03:46;13.33;;;10.77;;
5608;SDS011;2826;51.354;9.588;2022-10-15T00:06:14;19.13;;;11.50;;
5608;SDS011;2826;51.354;9.588;2022-10-15T00:08:42;15.80;;;11.30;;
5608;SDS011;2826;51.354;9.588;2022-10-15T00:11:12;16.43;;;12.20;;
5608;SDS011;2826;51.354;9.588;2022-10-15T00:13:41;14.77;;;11.30;;
5608;SDS011;2826;51.354;9.588;2022-10-15T00:16:10;15.37;;;10.87;;
5608;SDS011;2826;51.354;9.588;2022-10-15T00:18:39;14.40;;;10.40;;
5608;SDS011;2826;51.354;9.588;2022-10-15T00:21:06;13.87;;;10.97;;
5608;SDS011;2826;51.354;9.588;2022-10-15T00:23:34;12.50;;;10.47;;
5608;SDS011;2826;51.354;9.588;2022-10-15T00:26:02;15.07;;;10.57;;
5608;SDS011;2826;51.354;9.588;2022-10-15T00:28:31;14.17;;;11.23;;
5608;SDS011;2826;51.354;9.588;2022-10-15T00:30:59;20.03;;;10.60;;
5608;SDS011;2826;51.354;9.588;2022-10-15T00:33:26;16.33;;;9.70;;
5608;SDS011;2826;51.354;9.588;2022-10-15T00:35:57;11.83;;;9.53;;
5608;SDS011;2826;51.354;9.588;2022-10-15T00:38:24;12.13;;;9.10;;
5608;SDS011;2826;51.354;9.588;2022-10-15T00:40:51;11.30;;;9.03;;
5608;SDS011;2826;51.354;9.588;2022-10-15T00:46:17;13.03;;;9.27;;
5608;SDS011;2826;51.354;9.588;2022-10-15T00:48:49;13.73;;;10.63;;
5608;SDS011;2826;51.354;9.588;2022-10-15T00:51:20;12.00;;;9.60;;
5608;SDS011;2826;51.354;9.588;2022-10-15T00:53:48;17.23;;;9.87;;
5608;SDS011;2826;51.354;9.588;2022-10-15T00:56:16;11.10;;;9.40;;
5608;SDS011;2826;51.354;9.588;2022-10-15T00:58:48;12.83;;;9.43;;
5608;SDS011;2826;51.354;9.588;2022-10-15T01:01:18;14.20;;;10.17;;
5608;SDS011;2826;51.354;9.588;2022-10-15T01:03:45;13.47;;;10.10;;
5608;SDS011;2826;51.354;9.588;2022-10-15T01:06:13;12.13;;;9.10;;
5608;SDS011;2826;51.354;9.588;2022-10-15T01:08:40;13.07;;;9.90;;
5608;SDS011;2826;51.354;9.588;2022-10-15T01:11:12;12.37;;;9.70;;
5608;SDS011;2826;51.354;9.588;2022-10-15T01:13:52;13.60;;;10.17;;
5608;SDS011;2826;51.354;9.588;2022-10-15T01:16:30;11.87;;;9.80;;
5608;SDS011;2826;51.354;9.588;2022-10-15T01:19:03;10.90;;;9.00;;
5608;SDS011;2826;51.354;9.588;2022-10-15T01:21:37;11.77;;;9.20;;
5608;SDS011;2826;51.354;9.588;2022-10-15T01:27:26;13.80;;;8.80;;
5608;SDS011;2826;51.354;9.588;2022-10-15T01:33:02;11.00;;;8.83;;
5608;SDS011;2826;51.354;9.588;2022-10-15T01:35:39;10.43;;;7.87;;
5608;SDS011;2826;51.354;9.588;2022-10-15T01:38:15;9.93;;;7.93;;
5608;SDS011;2826;51.354;9.588;2022-10-15T01:40:50;10.20;;;7.80;;
5608;SDS011;2826;51.354;9.588;2022-10-15T01:43:21;9.83;;;7.60;;
5608;SDS011;2826;51.354;9.588;2022-10-15T01:46:33;13.10;;;8.37;;
5608;SDS011;2826;51.354;9.588;2022-10-15T01:49:06;9.43;;;7.73;;
5608;SDS011;2826;51.354;9.588;2022-10-15T01:51:36;12.37;;;7.70;;
5608;SDS011;2826;51.354;9.588;2022-10-15T01:54:07;10.80;;;7.47;;
5608;SDS011;2826;51.354;9.588;2022-10-15T01:56:37;8.97;;;7.50;;
5608;SDS011;2826;51.354;9.588;2022-10-15T01:59:06;9.40;;;8.20;;
5608;SDS011;2826;51.354;9.588;2022-10-15T02:01:38;15.67;;;9.40;;
5608;SDS011;2826;51.354;9.588;2022-10-15T02:04:15;13.27;;;9.10;;
5608;SDS011;2826;51.354;9.588;2022-10-15T02:06:45;19.83;;;10.17;;
5608;SDS011;2826;51.354;9.588;2022-10-15T02:09:20;16.00;;;11.10;;
5608;SDS011;2826;51.354;9.588;2022-10-15T02:11:59;16.43;;;11.50;;
5608;SDS011;2826;51.354;9.588;2022-10-15T02:14:39;14.73;;;9.90;;
5608;SDS011;2826;51.354;9.588;2022-10-15T02:17:15;20.63;;;9.53;;
5608;SDS011;2826;51.354;9.588;2022-10-15T02:19:48;12.20;;;9.70;;
5608;SDS011;2826;51.354;9.588;2022-10-15T02:22:17;13.80;;;9.90;;
5608;SDS011;2826;51.354;9.588;2022-10-15T02:24:49;14.90;;;9.70;;
5608;SDS011;2826;51.354;9.588;2022-10-15T02:27:20;16.60;;;9.90;;
5608;SDS011;2826;51.354;9.588;2022-10-15T02:29:47;12.33;;;9.97;;
5608;SDS011;2826;51.354;9.588;2022-10-15T02:32:18;18.50;;;9.07;;
5608;SDS011;2826;51.354;9.588;2022-10-15T02:34:48;11.80;;;9.10;;
5608;SDS011;2826;51.354;9.588;2022-10-15T02:37:16;13.97;;;10.00;;
5608;SDS011;2826;51.354;9.588;2022-10-15T02:39:46;11.67;;;8.87;;
5608;SDS011;2826;51.354;9.588;2022-10-15T02:42:13;21.43;;;9.10;;
5608;SDS011;2826;51.354;9.588;2022-10-15T02:44:42;11.30;;;8.67;;
5608;SDS011;2826;51.354;9.588;2022-10-15T02:47:10;15.30;;;9.57;;
5608;SDS011;2826;51.354;9.588;2022-10-15T02:49:39;15.07;;;10.57;;
5608;SDS011;2826;51.354;9.588;2022-10-15T02:52:06;13.47;;;9.13;;
5608;SDS011;2826;51.354;9.588;2022-10-15T02:54:33;13.00;;;9.20;;
5608;SDS011;2826;51.354;9.588;2022-10-15T02:57:00;15.87;;;8.70;;
5608;SDS011;2826;51.354;9.588;2022-10-15T02:59:27;15.57;;;9.10;;
5608;SDS011;2826;51.354;9.588;2022-10-15T03:01:55;13.43;;;8.97;;
5608;SDS011;2826;51.354;9.588;2022-10-15T03:04:25;12.20;;;9.07;;
5608;SDS011;2826;51.354;9.588;2022-10-15T03:06:53;15.70;;;10.50;;
5608;SDS011;2826;51.354;9.588;2022-10-15T03:09:21;13.23;;;9.40;;
5608;SDS011;2826;51.354;9.588;2022-10-15T03:11:48;14.87;;;10.20;;
5608;SDS011;2826;51.354;9.588;2022-10-15T03:14:16;14.27;;;9.40;;
5608;SDS011;2826;51.354;9.588;2022-10-15T03:16:43;18.27;;;10.50;;
5608;SDS011;2826;51.354;9.588;2022-10-15T03:19:10;11.87;;;8.47;;
5608;SDS011;2826;51.354;9.588;2022-10-15T03:21:38;11.70;;;8.70;;
5608;SDS011;2826;51.354;9.588;2022-10-15T03:24:11;13.17;;;9.00;;
5608;SDS011;2826;51.354;9.588;2022-10-15T03:26:38;14.07;;;8.40;;
5608;SDS011;2826;51.354;9.588;2022-10-15T03:29:05;11.77;;;8.60;;
5608;SDS011;2826;51.354;9.588;2022-10-15T03:31:37;14.07;;;8.80;;
5608;SDS011;2826;51.354;9.588;2022-10-15T03:34:04;15.33;;;8.10;;
5608;SDS011;2826;51.354;9.588;2022-10-15T03:36:32;12.67;;;8.70;;
5608;SDS011;2826;51.354;9.588;2022-10-15T03:38:59;12.47;;;7.97;;
5608;SDS011;2826;51.354;9.588;2022-10-15T03:41:28;12.60;;;8.87;;
5608;SDS011;2826;51.354;9.588;2022-10-15T03:43:59;10.97;;;8.37;;
5608;SDS011;2826;51.354;9.588;2022-10-15T03:46:26;11.47;;;8.17;;
5608;SDS011;2826;51.354;9.588;2022-10-15T03:48:53;12.70;;;8.17;;
5608;SDS011;2826;51.354;9.588;2022-10-15T03:51:20;12.83;;;8.80;;
5608;SDS011;2826;51.354;9.588;2022-10-15T03:53:50;11.67;;;8.13;;
5608;SDS011;2826;51.354;9.588;2022-10-15T03:56:17;17.80;;;8.60;;
5608;SDS011;2826;51.354;9.588;2022-10-15T03:58:46;13.60;;;8.70;;
5608;SDS011;2826;51.354;9.588;2022-10-15T04:01:14;13.13;;;8.77;;
5608;SDS011;2826;51.354;9.588;2022-10-15T04:03:42;22.13;;;9.50;;
5608;SDS011;2826;51.354;9.588;2022-10-15T04:06:09;11.90;;;8.80;;
5608;SDS011;2826;51.354;9.588;2022-10-15T04:08:37;17.40;;;8.93;;
5608;SDS011;2826;51.354;9.588;2022-10-15T04:11:18;56.20;;;11.33;;
5608;SDS011;2826;51.354;9.588;2022-10-15T04:13:55;33.70;;;9.40;;
5608;SDS011;2826;51.354;9.588;2022-10-15T04:16:22;189.27;;;13.03;;
5608;SDS011;2826;51.354;9.588;2022-10-15T04:18:49;196.90;;;13.07;;
5608;SDS011;2826;51.354;9.588;2022-10-15T04:21:16;202.00;;;13.87;;
5608;SDS011;2826;51.354;9.588;2022-10-15T04:23:48;428.97;;;19.30;;
5608;SDS011;2826;51.354;9.588;2022-10-15T04:26:22;782.90;;;29.50;;
5608;SDS011;2826;51.354;9.588;2022-10-15T04:28:49;846.63;;;28.13;;
5608;SDS011;2826;51.354;9.588;2022-10-15T04:31:19;558.80;;;21.07;;
5608;SDS011;2826;51.354;9.588;2022-10-15T04:33:48;467.70;;;17.27;;
5608;SDS011;2826;51.354;9.588;2022-10-15T04:36:15;717.67;;;22.83;;
5608;SDS011;2826;51.354;9.588;2022-10-15T04:39:18;720.90;;;22.43;;
5608;SDS011;2826;51.354;9.588;2022-10-15T04:41:46;761.27;;;23.00;;
5608;SDS011;2826;51.354;9.588;2022-10-15T04:44:20;708.40;;;23.40;;
5608;SDS011;2826;51.354;9.588;2022-10-15T04:46:55;717.20;;;23.70;;
5608;SDS011;2826;51.354;9.588;2022-10-15T04:49:51;517.70;;;22.40;;
5608;SDS011;2826;51.354;9.588;2022-10-15T04:52:29;738.73;;;21.97;;
5608;SDS011;2826;51.354;9.588;2022-10-15T04:55:04;640.87;;;20.47;;
5608;SDS011;2826;51.354;9.588;2022-10-15T04:57:31;360.30;;;13.35;;
5608;SDS011;2826;51.354;9.588;2022-10-15T04:59:58;452.27;;;15.97;;
5608;SDS011;2826;51.354;9.588;2022-10-15T05:02:47;408.27;;;16.43;;
5608;SDS011;2826;51.354;9.588;2022-10-15T05:05:19;447.93;;;18.53;;
5608;SDS011;2826;51.354;9.588;2022-10-15T05:07:57;583.10;;;22.57;;
5608;SDS011;2826;51.354;9.588;2022-10-15T05:10:25;208.77;;;13.33;;
5608;SDS011;2826;51.354;9.588;2022-10-15T05:12:52;339.30;;;15.73;;
5608;SDS011;2826;51.354;9.588;2022-10-15T05:15:26;453.73;;;17.83;;
5608;SDS011;2826;51.354;9.588;2022-10-15T05:17:56;112.03;;;8.37;;
5608;SDS011;2826;51.354;9.588;2022-10-15T05:20:31;457.73;;;16.57;;
5608;SDS011;2826;51.354;9.588;2022-10-15T05:22:58;311.73;;;14.03;;
5608;SDS011;2826;51.354;9.588;2022-10-15T05:25:31;62.23;;;11.07;;
5608;SDS011;2826;51.354;9.588;2022-10-15T05:27:57;539.37;;;21.50;;
5608;SDS011;2826;51.354;9.588;2022-10-15T05:30:24;209.70;;;14.13;;
5608;SDS011;2826;51.354;9.588;2022-10-15T05:32:52;395.43;;;20.70;;
5608;SDS011;2826;51.354;9.588;2022-10-15T05:35:22;399.00;;;15.87;;
5608;SDS011;2826;51.354;9.588;2022-10-15T05:37:53;180.97;;;11.70;;
5608;SDS011;2826;51.354;9.588;2022-10-15T05:40:21;152.03;;;11.30;;
5608;SDS011;2826;51.354;9.588;2022-10-15T05:43:03;87.83;;;10.67;;
5608;SDS011;2826;51.354;9.588;2022-10-15T05:45:30;417.33;;;18.50;;
5608;SDS011;2826;51.354;9.588;2022-10-15T05:48:02;239.90;;;15.80;;
5608;SDS011;2826;51.354;9.588;2022-10-15T05:50:31;93.40;;;12.93;;
5608;SDS011;2826;51.354;9.588;2022-10-15T05:53:00;520.40;;;20.13;;
5608;SDS011;2826;51.354;9.588;2022-10-15T05:55:48;319.33;;;16.33;;
5608;SDS011;2826;51.354;9.588;2022-10-15T05:58:18;106.50;;;12.03;;
5608;SDS011;2826;51.354;9.588;2022-10-15T06:00:45;42.17;;;12.23;;
5608;SDS011;2826;51.354;9.588;2022-10-15T06:03:19;81.97;;;13.93;;
5608;SDS011;2826;51.354;9.588;2022-10-15T06:05:47;30.83;;;14.50;;
5608;SDS011;2826;51.354;9.588;2022-10-15T06:08:14;21.87;;;12.43;;
5608;SDS011;2826;51.354;9.588;2022-10-15T06:10:42;25.80;;;13.77;;
5608;SDS011;2826;51.354;9.588;2022-10-15T06:13:09;26.23;;;13.77;;
5608;SDS011;2826;51.354;9.588;2022-10-15T06:15:37;29.33;;;14.43;;
5608;SDS011;2826;51.354;9.588;2022-10-15T06:18:07;55.47;;;13.80;;
5608;SDS011;2826;51.354;9.588;2022-10-15T06:20:35;143.20;;;15.60;;
5608;SDS011;2826;51.354;9.588;2022-10-15T06:23:04;43.53;;;14.13;;
5608;SDS011;2826;51.354;9.588;2022-10-15T06:25:32;118.93;;;13.83;;
5608;SDS011;2826;51.354;9.588;2022-10-15T06:27:59;158.10;;;11.67;;
5608;SDS011;2826;51.354;9.588;2022-10-15T06:30:27;190.63;;;14.33;;
5608;SDS011;2826;51.354;9.588;2022-10-15T06:32:54;439.83;;;15.90;;
5608;SDS011;2826;51.354;9.588;2022-10-15T06:35:22;285.10;;;15.50;;
5608;SDS011;2826;51.354;9.588;2022-10-15T06:37:49;346.97;;;14.90;;
5608;SDS011;2826;51.354;9.588;2022-10-15T06:40:18;218.57;;;11.63;;
5608;SDS011;2826;51.354;9.588;2022-10-15T06:42:46;348.53;;;13.33;;
5608;SDS011;2826;51.354;9.588;2022-10-15T06:45:13;679.77;;;19.20;;
5608;SDS011;2826;51.354;9.588;2022-10-15T06:47:41;301.17;;;12.90;;
5608;SDS011;2826;51.354;9.588;2022-10-15T06:50:07;145.17;;;9.97;;
5608;SDS011;2826;51.354;9.588;2022-10-15T06:52:35;406.33;;;13.43;;
5608;SDS011;2826;51.354;9.588;2022-10-15T06:55:02;576.87;;;18.07;;
5608;SDS011;2826;51.354;9.588;2022-10-15T06:57:31;304.57;;;13.00;;
5608;SDS011;2826;51.354;9.588;2022-10-15T06:59:58;759.77;;;23.47;;
5608;SDS011;2826;51.354;9.588;2022-10-15T07:02:25;521.80;;;25.53;;
5608;SDS011;2826;51.354;9.588;2022-10-15T07:04:52;794.50;;;23.70;;
5608;SDS011;2826;51.354;9.588;2022-10-15T07:07:19;834.00;;;26.00;;
5608;SDS011;2826;51.354;9.588;2022-10-15T07:09:45;844.83;;;26.77;;
5608;SDS011;2826;51.354;9.588;2022-10-15T07:12:13;920.20;;;29.23;;
5608;SDS011;2826;51.354;9.588;2022-10-15T07:14:41;1181.07;;;35.67;;
5608;SDS011;2826;51.354;9.588;2022-10-15T07:17:08;749.47;;;24.43;;
5608;SDS011;2826;51.354;9.588;2022-10-15T07:19:35;1093.33;;;36.73;;
5608;SDS011;2826;51.354;9.588;2022-10-15T07:22:02;909.37;;;29.50;;
5608;SDS011;2826;51.354;9.588;2022-10-15T07:24:29;907.13;;;28.40;;
5608;SDS011;2826;51.354;9.588;2022-10-15T07:26:55;947.40;;;27.20;;
5608;SDS011;2826;51.354;9.588;2022-10-15T07:29:22;1032.63;;;32.80;;
5608;SDS011;2826;51.354;9.588;2022-10-15T07:31:50;740.63;;;24.73;;
5608;SDS011;2826;51.354;9.588;2022-10-15T07:34:17;971.43;;;31.03;;
5608;SDS011;2826;51.354;9.588;2022-10-15T07:36:44;747.57;;;28.00;;
5608;SDS011;2826;51.354;9.588;2022-10-15T07:39:11;932.30;;;32.27;;
5608;SDS011;2826;51.354;9.588;2022-10-15T07:41:38;769.27;;;27.67;;
5608;SDS011;2826;51.354;9.588;2022-10-15T07:44:05;940.23;;;33.77;;
5608;SDS011;2826;51.354;9.588;2022-10-15T07:46:33;849.50;;;32.87;;
5608;SDS011;2826;51.354;9.588;2022-10-15T07:49:01;803.17;;;27.97;;
5608;SDS011;2826;51.354;9.588;2022-10-15T07:51:28;809.93;;;34.63;;
5608;SDS011;2826;51.354;9.588;2022-10-15T07:53:54;1003.87;;;45.27;;
5608;SDS011;2826;51.354;9.588;2022-10-15T07:56:21;843.47;;;33.00;;
5608;SDS011;2826;51.354;9.588;2022-10-15T07:58:48;860.23;;;39.37;;
5608;SDS011;2826;51.354;9.588;2022-10-15T08:01:17;835.90;;;35.70;;
5608;SDS011;2826;51.354;9.588;2022-10-15T08:03:45;623.70;;;34.10;;
5608;SDS011;2826;51.354;9.588;2022-10-15T08:06:13;753.97;;;32.47;;
5608;SDS011;2826;51.354;9.588;2022-10-15T08:08:40;799.50;;;31.87;;
5608;SDS011;2826;51.354;9.588;2022-10-15T08:11:08;579.43;;;29.10;;
5608;SDS011;2826;51.354;9.588;2022-10-15T08:13:36;513.03;;;25.40;;
5608;SDS011;2826;51.354;9.588;2022-10-15T08:16:06;773.07;;;29.60;;
5608;SDS011;2826;51.354;9.588;2022-10-15T08:18:33;468.63;;;22.90;;
5608;SDS011;2826;51.354;9.588;2022-10-15T08:21:02;314.23;;;22.27;;
5608;SDS011;2826;51.354;9.588;2022-10-15T08:23:31;152.20;;;18.80;;
5608;SDS011;2826;51.354;9.588;2022-10-15T08:26:08;54.93;;;14.74;;
5608;SDS011;2826;51.354;9.588;2022-10-15T08:28:34;27.73;;;14.27;;
5608;SDS011;2826;51.354;9.588;2022-10-15T08:31:02;23.97;;;12.73;;
5608;SDS011;2826;51.354;9.588;2022-10-15T08:33:30;23.13;;;13.00;;
5608;SDS011;2826;51.354;9.588;2022-10-15T08:35:56;20.20;;;11.40;;
5608;SDS011;2826;51.354;9.588;2022-10-15T08:38:24;17.17;;;9.97;;
5608;SDS011;2826;51.354;9.588;2022-10-15T08:40:52;17.40;;;9.80;;
5608;SDS011;2826;51.354;9.588;2022-10-15T08:43:22;14.00;;;9.63;;
5608;SDS011;2826;51.354;9.588;2022-10-15T08:45:53;18.40;;;9.20;;
5608;SDS011;2826;51.354;9.588;2022-10-15T08:48:25;16.00;;;9.70;;
5608;SDS011;2826;51.354;9.588;2022-10-15T08:50:58;14.93;;;8.90;;
5608;SDS011;2826;51.354;9.588;2022-10-15T08:53:29;15.27;;;9.33;;
5608;SDS011;2826;51.354;9.588;2022-10-15T08:56:10;17.10;;;9.20;;
5608;SDS011;2826;51.354;9.588;2022-10-15T08:58:42;11.10;;;8.17;;
5608;SDS011;2826;51.354;9.588;2022-10-15T09:01:16;10.90;;;8.53;;
5608;SDS011;2826;51.354;9.588;2022-10-15T09:03:51;12.30;;;9.00;;
5608;SDS011;2826;51.354;9.588;2022-10-15T09:06:29;9.80;;;7.80;;
5608;SDS011;2826;51.354;9.588;2022-10-15T09:09:01;10.17;;;7.27;;
5608;SDS011;2826;51.354;9.588;2022-10-15T09:11:37;8.00;;;6.13;;
5608;SDS011;2826;51.354;9.588;2022-10-15T09:14:16;8.60;;;6.47;;
5608;SDS011;2826;51.354;9.588;2022-10-15T09:16:46;7.20;;;6.40;;
5608;SDS011;2826;51.354;9.588;2022-10-15T09:19:16;9.60;;;6.03;;
5608;SDS011;2826;51.354;9.588;2022-10-15T09:21:45;6.90;;;5.40;;
5608;SDS011;2826;51.354;9.588;2022-10-15T09:24:16;7.90;;;5.60;;
5608;SDS011;2826;51.354;9.588;2022-10-15T09:26:52;7.40;;;5.40;;
5608;SDS011;2826;51.354;9.588;2022-10-15T09:29:27;7.53;;;5.47;;
5608;SDS011;2826;51.354;9.588;2022-10-15T09:32:02;5.73;;;4.40;;
5608;SDS011;2826;51.354;9.588;2022-10-15T09:34:38;5.77;;;4.53;;
5608;SDS011;2826;51.354;9.588;2022-10-15T09:37:11;10.53;;;4.30;;
5608;SDS011;2826;51.354;9.588;2022-10-15T09:42:48;4.17;;;3.60;;
5608;SDS011;2826;51.354;9.588;2022-10-15T09:45:19;5.73;;;3.20;;
5608;SDS011;2826;51.354;9.588;2022-10-15T09:47:49;3.00;;;2.80;;
5608;SDS011;2826;51.354;9.588;2022-10-15T09:50:17;4.77;;;2.50;;
5608;SDS011;2826;51.354;9.588;2022-10-15T09:52:55;2.00;;;1.90;;
5608;SDS011;2826;51.354;9.588;2022-10-15T09:55:36;2.40;;;2.20;;
5608;SDS011;2826;51.354;9.588;2022-10-15T09:58:13;3.77;;;2.30;;
5608;SDS011;2826;51.354;9.588;2022-10-15T10:00:51;1.97;;;1.87;;
5608;SDS011;2826;51.354;9.588;2022-10-15T10:03:20;4.87;;;2.03;;
5608;SDS011;2826;51.354;9.588;2022-10-15T10:05:49;2.33;;;2.13;;
5608;SDS011;2826;51.354;9.588;2022-10-15T10:08:17;4.00;;;2.80;;
5608;SDS011;2826;51.354;9.588;2022-10-15T10:10:52;3.10;;;2.40;;
5608;SDS011;2826;51.354;9.588;2022-10-15T10:13:23;2.57;;;2.37;;
5608;SDS011;2826;51.354;9.588;2022-10-15T10:15:53;2.60;;;2.40;;
5608;SDS011;2826;51.354;9.588;2022-10-15T10:18:23;2.40;;;2.20;;
5608;SDS011;2826;51.354;9.588;2022-10-15T10:20:51;1.87;;;1.77;;
5608;SDS011;2826;51.354;9.588;2022-10-15T10:23:23;2.13;;;1.93;;
5608;SDS011;2826;51.354;9.588;2022-10-15T10:25:54;6.23;;;1.83;;
5608;SDS011;2826;51.354;9.588;2022-10-15T10:28:26;4.90;;;1.87;;
5608;SDS011;2826;51.354;9.588;2022-10-15T10:31:01;1.60;;;1.50;;
5608;SDS011;2826;51.354;9.588;2022-10-15T10:33:32;1.87;;;1.70;;
5608;SDS011;2826;51.354;9.588;2022-10-15T10:36:04;1.47;;;1.37;;
5608;SDS011;2826;51.354;9.588;2022-10-15T10:38:33;1.57;;;1.47;;
5608;SDS011;2826;51.354;9.588;2022-10-15T10:41:02;1.83;;;1.50;;
5608;SDS011;2826;51.354;9.588;2022-10-15T10:43:34;1.40;;;1.27;;
5608;SDS011;2826;51.354;9.588;2022-10-15T10:46:03;2.20;;;1.40;;
5608;SDS011;2826;51.354;9.588;2022-10-15T10:48:46;4.50;;;2.97;;
5608;SDS011;2826;51.354;9.588;2022-10-15T10:51:14;1.50;;;1.40;;
5608;SDS011;2826;51.354;9.588;2022-10-15T10:53:47;1.60;;;1.50;;
5608;SDS011;2826;51.354;9.588;2022-10-15T10:56:17;1.23;;;1.10;;
5608;SDS011;2826;51.354;9.588;2022-10-15T10:58:49;2.60;;;1.30;;
5608;SDS011;2826;51.354;9.588;2022-10-15T11:01:21;1.40;;;1.30;;
5608;SDS011;2826;51.354;9.588;2022-10-15T11:03:48;1.50;;;1.40;;
5608;SDS011;2826;51.354;9.588;2022-10-15T11:06:20;1.93;;;1.60;;
5608;SDS011;2826;51.354;9.588;2022-10-15T11:12:06;3.53;;;1.60;;
5608;SDS011;2826;51.354;9.588;2022-10-15T11:14:49;2.57;;;1.40;;
5608;SDS011;2826;51.354;9.588;2022-10-15T11:17:22;1.63;;;1.53;;
5608;SDS011;2826;51.354;9.588;2022-10-15T11:20:02;2.30;;;1.70;;
5608;SDS011;2826;51.354;9.588;2022-10-15T11:22:38;2.03;;;1.90;;
5608;SDS011;2826;51.354;9.588;2022-10-15T11:25:16;3.63;;;2.03;;
5608;SDS011;2826;51.354;9.588;2022-10-15T11:30:47;1.93;;;1.83;;
5608;SDS011;2826;51.354;9.588;2022-10-15T11:33:22;1.53;;;1.40;;
5608;SDS011;2826;51.354;9.588;2022-10-15T11:35:58;3.87;;;1.90;;
5608;SDS011;2826;51.354;9.588;2022-10-15T11:38:32;3.90;;;1.80;;
5608;SDS011;2826;51.354;9.588;2022-10-15T11:44:04;1.87;;;1.77;;
5608;SDS011;2826;51.354;9.588;2022-10-15T11:46:48;3.47;;;1.97;;
5608;SDS011;2826;51.354;9.588;2022-10-15T11:49:30;1.87;;;1.77;;
5608;SDS011;2826;51.354;9.588;2022-10-15T11:52:08;4.80;;;1.80;;
5608;SDS011;2826;51.354;9.588;2022-10-15T11:54:52;1.63;;;1.50;;
5608;SDS011;2826;51.354;9.588;2022-10-15T11:57:27;2.57;;;1.57;;
5608;SDS011;2826;51.354;9.588;2022-10-15T11:59:59;1.80;;;1.70;;
5608;SDS011;2826;51.354;9.588;2022-10-15T12:02:39;1.50;;;1.40;;
5608;SDS011;2826;51.354;9.588;2022-10-15T12:05:07;1.73;;;1.63;;
5608;SDS011;2826;51.354;9.588;2022-10-15T12:07:41;2.67;;;1.60;;
5608;SDS011;2826;51.354;9.588;2022-10-15T12:10:15;4.00;;;1.80;;
5608;SDS011;2826;51.354;9.588;2022-10-15T12:12:56;1.97;;;1.40;;
5608;SDS011;2826;51.354;9.588;2022-10-15T12:15:29;1.77;;;1.67;;
5608;SDS011;2826;51.354;9.588;2022-10-15T12:18:09;1.43;;;1.33;;
5608;SDS011;2826;51.354;9.588;2022-10-15T12:20:45;1.47;;;1.37;;
5608;SDS011;2826;51.354;9.588;2022-10-15T12:23:22;3.53;;;1.40;;
5608;SDS011;2826;51.354;9.588;2022-10-15T12:25:52;1.80;;;1.70;;
5608;SDS011;2826;51.354;9.588;2022-10-15T12:28:20;1.67;;;1.57;;
5608;SDS011;2826;51.354;9.588;2022-10-15T12:30:53;1.50;;;1.40;;
5608;SDS011;2826;51.354;9.588;2022-10-15T12:33:28;1.40;;;1.30;;
5608;SDS011;2826;51.354;9.588;2022-10-15T12:35:59;2.23;;;2.00;;
5608;SDS011;2826;51.354;9.588;2022-10-15T12:38:27;5.43;;;2.63;;
5608;SDS011;2826;51.354;9.588;2022-10-15T12:40:57;1.50;;;1.40;;
5608;SDS011;2826;51.354;9.588;2022-10-15T12:43:26;3.53;;;1.43;;
5608;SDS011;2826;51.354;9.588;2022-10-15T12:45:55;1.50;;;1.40;;
5608;SDS011;2826;51.354;9.588;2022-10-15T12:48:31;1.50;;;1.40;;
5608;SDS011;2826;51.354;9.588;2022-10-15T13:00:27;1.40;;;1.30;;
5608;SDS011;2826;51.354;9.588;2022-10-15T13:02:57;3.63;;;1.90;;
5608;SDS011;2826;51.354;9.588;2022-10-15T13:05:36;1.40;;;1.23;;
5608;SDS011;2826;51.354;9.588;2022-10-15T13:08:04;1.10;;;1.00;;
5608;SDS011;2826;51.354;9.588;2022-10-15T13:10:38;3.30;;;2.50;;
5608;SDS011;2826;51.354;9.588;2022-10-15T13:13:12;2.27;;;1.40;;
5608;SDS011;2826;51.354;9.588;2022-10-15T13:15:42;4.13;;;2.47;;
5608;SDS011;2826;51.354;9.588;2022-10-15T13:18:16;1.70;;;1.47;;
5608;SDS011;2826;51.354;9.588;2022-10-15T13:20:44;1.20;;;1.10;;
5608;SDS011;2826;51.354;9.588;2022-10-15T13:23:15;3.50;;;1.23;;
5608;SDS011;2826;51.354;9.588;2022-10-15T13:25:45;1.00;;;0.90;;
5608;SDS011;2826;51.354;9.588;2022-10-15T13:28:26;1.50;;;1.40;;
5608;SDS011;2826;51.354;9.588;2022-10-15T13:30:55;1.30;;;1.20;;
5608;SDS011;2826;51.354;9.588;2022-10-15T13:33:22;4.77;;;1.40;;
5608;SDS011;2826;51.354;9.588;2022-10-15T13:35:52;1.43;;;1.27;;
5608;SDS011;2826;51.354;9.588;2022-10-15T13:38:20;1.20;;;1.10;;
5608;SDS011;2826;51.354;9.588;2022-10-15T13:40:50;1.50;;;1.40;;
5608;SDS011;2826;51.354;9.588;2022-10-15T13:43:19;1.60;;;1.50;;
5608;SDS011;2826;51.354;9.588;2022-10-15T13:45:48;1.80;;;1.50;;
5608;SDS011;2826;51.354;9.588;2022-10-15T13:48:18;1.83;;;1.73;;
5608;SDS011;2826;51.354;9.588;2022-10-15T13:50:47;3.77;;;1.87;;
5608;SDS011;2826;51.354;9.588;2022-10-15T13:53:21;1.70;;;1.40;;
5608;SDS011;2826;51.354;9.588;2022-10-15T13:55:53;3.10;;;1.50;;
5608;SDS011;2826;51.354;9.588;2022-10-15T13:58:23;1.40;;;1.30;;
5608;SDS011;2826;51.354;9.588;2022-10-15T14:00:52;1.23;;;1.13;;
5608;SDS011;2826;51.354;9.588;2022-10-15T14:03:23;7.07;;;1.40;;
5608;SDS011;2826;51.354;9.588;2022-10-15T14:05:52;1.70;;;1.53;;
5608;SDS011;2826;51.354;9.588;2022-10-15T14:08:22;5.97;;;1.90;;
5608;SDS011;2826;51.354;9.588;2022-10-15T14:10:52;5.23;;;1.57;;
5608;SDS011;2826;51.354;9.588;2022-10-15T14:13:20;4.43;;;1.97;;
5608;SDS011;2826;51.354;9.588;2022-10-15T14:15:56;1.40;;;1.30;;
5608;SDS011;2826;51.354;9.588;2022-10-15T14:18:28;1.30;;;1.20;;
5608;SDS011;2826;51.354;9.588;2022-10-15T14:20:58;2.70;;;1.50;;
5608;SDS011;2826;51.354;9.588;2022-10-15T14:23:27;1.60;;;1.50;;
5608;SDS011;2826;51.354;9.588;2022-10-15T14:25:55;5.23;;;1.60;;
5608;SDS011;2826;51.354;9.588;2022-10-15T14:28:26;4.77;;;1.43;;
5608;SDS011;2826;51.354;9.588;2022-10-15T14:30:54;2.10;;;1.73;;
5608;SDS011;2826;51.354;9.588;2022-10-15T14:33:29;1.60;;;1.50;;
5608;SDS011;2826;51.354;9.588;2022-10-15T14:36:08;1.63;;;1.53;;
5608;SDS011;2826;51.354;9.588;2022-10-15T14:38:53;2.50;;;1.90;;
5608;SDS011;2826;51.354;9.588;2022-10-15T14:41:22;5.53;;;1.77;;
5608;SDS011;2826;51.354;9.588;2022-10-15T14:44:02;3.43;;;1.60;;
5608;SDS011;2826;51.354;9.588;2022-10-15T14:46:35;2.07;;;1.90;;
5608;SDS011;2826;51.354;9.588;2022-10-15T14:49:15;9.67;;;2.10;;
5608;SDS011;2826;51.354;9.588;2022-10-15T14:51:50;2.67;;;2.00;;
5608;SDS011;2826;51.354;9.588;2022-10-15T14:54:21;9.23;;;1.73;;
5608;SDS011;2826;51.354;9.588;2022-10-15T14:56:50;3.10;;;1.63;;
5608;SDS011;2826;51.354;9.588;2022-10-15T14:59:18;1.63;;;1.50;;
5608;SDS011;2826;51.354;9.588;2022-10-15T15:01:50;3.60;;;1.83;;
5608;SDS011;2826;51.354;9.588;2022-10-15T15:04:35;2.47;;;2.00;;
5608;SDS011;2826;51.354;9.588;2022-10-15T15:09:54;3.10;;;1.90;;
5608;SDS011;2826;51.354;9.588;2022-10-15T15:12:21;1.90;;;1.80;;
5608;SDS011;2826;51.354;9.588;2022-10-15T15:14:50;4.50;;;1.70;;
5608;SDS011;2826;51.354;9.588;2022-10-15T15:17:19;1.90;;;1.80;;
5608;SDS011;2826;51.354;9.588;2022-10-15T15:19:47;3.07;;;1.80;;
5608;SDS011;2826;51.354;9.588;2022-10-15T15:22:16;5.60;;;2.07;;
5608;SDS011;2826;51.354;9.588;2022-10-15T15:24:48;1.93;;;1.83;;
5608;SDS011;2826;51.354;9.588;2022-10-15T15:27:23;5.50;;;2.73;;
5608;SDS011;2826;51.354;9.588;2022-10-15T15:29:53;2.00;;;1.90;;
5608;SDS011;2826;51.354;9.588;2022-10-15T15:32:20;2.00;;;1.80;;
5608;SDS011;2826;51.354;9.588;2022-10-15T15:34:49;2.83;;;1.73;;
5608;SDS011;2826;51.354;9.588;2022-10-15T15:37:18;4.30;;;1.80;;
5608;SDS011;2826;51.354;9.588;2022-10-15T15:39:46;2.23;;;2.10;;
5608;SDS011;2826;51.354;9.588;2022-10-15T15:42:13;2.10;;;1.50;;
5608;SDS011;2826;51.354;9.588;2022-10-15T15:44:43;5.63;;;1.93;;
5608;SDS011;2826;51.354;9.588;2022-10-15T15:47:10;1.73;;;1.63;;
5608;SDS011;2826;51.354;9.588;2022-10-15T15:49:38;3.40;;;1.80;;
5608;SDS011;2826;51.354;9.588;2022-10-15T15:52:06;1.80;;;1.70;;
5608;SDS011;2826;51.354;9.588;2022-10-15T15:54:36;2.80;;;1.80;;